createdAt,value
2018-11-11T00:01:10.165Z,11.80
2018-11-11T00:03:38.821Z,11.80
2018-11-11T00:06:11.085Z,11.80
2018-11-11T00:08:52.923Z,11.80
2018-11-11T00:11:22.185Z,11.70
2018-11-11T00:13:56.444Z,11.60
2018-11-11T00:16:28.004Z,11.70
2018-11-11T00:18:58.043Z,11.70
2018-11-11T00:21:27.780Z,11.80
2018-11-11T00:23:56.542Z,11.80
2018-11-11T00:26:43.421Z,11.80
2018-11-11T00:29:12.439Z,11.70
2018-11-11T00:32:01.231Z,11.60
2018-11-11T00:34:29.808Z,11.60
2018-11-11T00:36:59.329Z,11.70
2018-11-11T00:39:28.485Z,11.80
2018-11-11T00:41:57.327Z,11.70
2018-11-11T00:44:26.230Z,11.70
2018-11-11T00:46:56.118Z,11.60
2018-11-11T00:49:29.504Z,11.60
2018-11-11T00:51:58.254Z,11.60
2018-11-11T00:54:26.232Z,11.50
2018-11-11T00:56:54.889Z,11.30
2018-11-11T00:59:24.224Z,11.30
2018-11-11T01:01:52.531Z,11.30
2018-11-11T01:04:20.789Z,11.10
2018-11-11T01:06:49.018Z,10.80
2018-11-11T01:09:17.154Z,10.60
2018-11-11T01:11:45.563Z,10.40
2018-11-11T01:14:13.601Z,10.30
2018-11-11T01:16:41.650Z,10.30
2018-11-11T01:19:09.713Z,10.30
2018-11-11T01:21:38.057Z,10.30
2018-11-11T01:24:06.222Z,10.30
2018-11-11T01:26:35.273Z,10.30
2018-11-11T01:29:03.399Z,10.30
2018-11-11T01:31:31.677Z,10.40
2018-11-11T01:34:00.517Z,10.40
2018-11-11T01:36:28.611Z,10.40
2018-11-11T01:38:57.145Z,10.50
2018-11-11T01:41:25.381Z,10.50
2018-11-11T01:43:53.342Z,10.50
2018-11-11T01:46:21.355Z,10.50
2018-11-11T01:48:49.809Z,10.60
2018-11-11T01:51:17.946Z,10.60
2018-11-11T01:53:46.277Z,10.60
2018-11-11T01:56:14.375Z,10.50
2018-11-11T01:58:42.842Z,10.50
2018-11-11T02:01:10.954Z,10.50
2018-11-11T02:03:39.457Z,10.50
2018-11-11T02:06:07.726Z,10.40
2018-11-11T02:08:35.886Z,10.40
2018-11-11T02:11:04.007Z,10.40
2018-11-11T02:13:32.017Z,10.60
2018-11-11T02:15:59.944Z,10.60
2018-11-11T02:18:27.882Z,10.60
2018-11-11T02:20:55.980Z,10.50
2018-11-11T02:23:24.084Z,10.50
2018-11-11T02:25:52.178Z,10.60
2018-11-11T02:28:20.522Z,10.60
2018-11-11T02:30:49.085Z,10.60
2018-11-11T02:33:18.919Z,10.70
2018-11-11T02:35:47.462Z,10.70
2018-11-11T02:38:15.625Z,10.80
2018-11-11T02:40:45.037Z,10.80
2018-11-11T02:43:13.308Z,10.80
2018-11-11T02:45:44.574Z,10.80
2018-11-11T02:48:13.218Z,10.80
2018-11-11T02:50:41.820Z,10.90
2018-11-11T02:53:10.423Z,10.90
2018-11-11T02:55:40.126Z,10.90
2018-11-11T02:58:09.606Z,11.00
2018-11-11T03:00:37.547Z,11.00
2018-11-11T03:03:06.403Z,11.00
2018-11-11T03:05:35.142Z,11.10
2018-11-11T03:08:04.338Z,11.10
2018-11-11T03:10:33.027Z,11.10
2018-11-11T03:13:01.398Z,11.20
2018-11-11T03:15:29.470Z,11.20
2018-11-11T03:17:58.005Z,11.20
2018-11-11T03:20:26.459Z,11.20
2018-11-11T03:22:54.629Z,11.00
2018-11-11T03:25:24.110Z,11.00
2018-11-11T03:27:54.181Z,10.90
2018-11-11T03:30:22.425Z,10.80
2018-11-11T03:32:50.742Z,10.80
2018-11-11T03:35:19.814Z,10.80
2018-11-11T03:37:48.599Z,10.90
2018-11-11T03:40:19.912Z,10.90
2018-11-11T03:42:48.731Z,10.90
2018-11-11T03:45:18.142Z,10.90
2018-11-11T03:47:47.274Z,10.90
2018-11-11T03:50:15.275Z,10.90
2018-11-11T03:52:43.758Z,10.90
2018-11-11T03:55:12.199Z,10.90
2018-11-11T03:57:41.277Z,10.90
2018-11-11T04:00:11.966Z,10.90
2018-11-11T04:02:40.731Z,11.00
2018-11-11T04:05:11.782Z,10.90
2018-11-11T04:07:40.629Z,10.80
2018-11-11T04:10:12.798Z,10.70
2018-11-11T04:12:41.478Z,10.70
2018-11-11T04:15:11.479Z,10.80
2018-11-11T04:17:39.745Z,10.80
2018-11-11T04:20:10.282Z,10.70
2018-11-11T04:22:38.678Z,10.70
2018-11-11T04:25:07.652Z,10.70
2018-11-11T04:27:35.881Z,10.80
2018-11-11T04:30:04.512Z,10.80
2018-11-11T04:32:32.683Z,10.90
2018-11-11T04:35:01.160Z,10.80
2018-11-11T04:37:29.430Z,10.70
2018-11-11T04:39:57.507Z,10.80
2018-11-11T04:42:25.549Z,10.90
2018-11-11T04:44:53.956Z,10.90
2018-11-11T04:47:22.495Z,10.80
2018-11-11T04:49:50.832Z,10.80
2018-11-11T04:52:18.947Z,10.80
2018-11-11T04:54:47.379Z,10.80
2018-11-11T04:57:16.126Z,10.90
2018-11-11T04:59:44.376Z,10.80
2018-11-11T05:02:12.627Z,10.90
2018-11-11T05:04:41.458Z,10.90
2018-11-11T05:07:11.024Z,10.90
2018-11-11T05:09:39.250Z,10.80
2018-11-11T05:12:07.496Z,10.90
2018-11-11T05:14:36.511Z,10.90
2018-11-11T05:17:04.821Z,10.80
2018-11-11T05:19:33.183Z,10.90
2018-11-11T05:22:01.496Z,10.80
2018-11-11T05:24:29.792Z,10.80
2018-11-11T05:26:57.943Z,10.90
2018-11-11T05:29:26.419Z,10.90
2018-11-11T05:31:54.400Z,10.90
2018-11-11T05:34:22.927Z,10.90
2018-11-11T05:36:51.271Z,10.90
2018-11-11T05:39:19.559Z,10.90
2018-11-11T05:41:47.880Z,10.90
2018-11-11T05:44:15.934Z,10.80
2018-11-11T05:46:44.389Z,10.80
2018-11-11T05:49:12.783Z,10.90
2018-11-11T05:51:41.294Z,11.00
2018-11-11T05:54:10.573Z,11.10
2018-11-11T05:56:39.921Z,11.20
2018-11-11T05:59:08.313Z,11.10
2018-11-11T06:01:36.921Z,11.20
2018-11-11T06:04:05.935Z,11.20
2018-11-11T06:06:34.559Z,11.20
2018-11-11T06:09:03.008Z,11.00
2018-11-11T06:11:31.433Z,10.90
2018-11-11T06:14:00.403Z,10.80
2018-11-11T06:16:28.334Z,10.80
2018-11-11T06:18:56.192Z,10.80
2018-11-11T06:21:23.992Z,10.70
2018-11-11T06:23:52.727Z,10.80
2018-11-11T06:26:21.249Z,10.80
2018-11-11T06:28:49.493Z,10.70
2018-11-11T06:31:18.041Z,10.70
2018-11-11T06:33:46.581Z,10.70
2018-11-11T06:36:15.049Z,10.70
2018-11-11T06:38:43.406Z,10.80
2018-11-11T06:41:11.706Z,10.90
2018-11-11T06:43:39.821Z,11.00
2018-11-11T06:46:07.561Z,11.00
2018-11-11T06:48:35.447Z,11.00
2018-11-11T06:51:03.174Z,11.00
2018-11-11T06:53:30.853Z,11.10
2018-11-11T06:55:58.605Z,11.20
2018-11-11T06:58:26.313Z,11.20
2018-11-11T07:00:53.957Z,11.00
2018-11-11T07:03:32.936Z,11.00
2018-11-11T07:06:00.564Z,11.10
2018-11-11T07:08:30.866Z,11.00
2018-11-11T07:10:58.541Z,11.00
2018-11-11T07:13:26.202Z,11.00
2018-11-11T07:15:53.801Z,11.00
2018-11-11T07:18:21.514Z,10.70
2018-11-11T07:20:49.295Z,10.60
2018-11-11T07:23:17.241Z,10.50
2018-11-11T07:25:45.379Z,10.50
2018-11-11T07:28:13.271Z,10.60
2018-11-11T07:30:41.244Z,10.60
2018-11-11T07:33:09.274Z,10.80
2018-11-11T07:35:37.159Z,11.00
2018-11-11T07:38:05.346Z,11.20
2018-11-11T07:40:33.057Z,11.50
2018-11-11T07:43:00.769Z,11.60
2018-11-11T07:45:28.495Z,11.70
2018-11-11T07:48:08.453Z,11.80
2018-11-11T07:50:36.125Z,11.90
2018-11-11T07:53:04.095Z,11.80
2018-11-11T07:55:31.925Z,11.70
2018-11-11T07:58:00.189Z,11.80
2018-11-11T08:00:27.963Z,11.70
2018-11-11T08:02:55.699Z,11.80
2018-11-11T08:05:23.355Z,11.90
2018-11-11T08:07:51.302Z,11.90
2018-11-11T08:10:30.747Z,11.80
2018-11-11T08:12:59.142Z,11.80
2018-11-11T08:15:27.210Z,11.80
2018-11-11T08:17:56.103Z,11.80
2018-11-11T08:20:23.964Z,11.60
2018-11-11T08:22:51.575Z,11.60
2018-11-11T08:25:19.294Z,11.60
2018-11-11T08:27:49.063Z,11.80
2018-11-11T08:30:17.227Z,11.80
2018-11-11T08:32:45.055Z,11.90
2018-11-11T08:35:12.818Z,11.90
2018-11-11T08:37:40.477Z,12.00
2018-11-11T08:40:13.152Z,12.10
2018-11-11T08:42:40.849Z,12.30
2018-11-11T08:45:10.605Z,12.40
2018-11-11T08:47:38.317Z,12.40
2018-11-11T08:50:07.454Z,12.50
2018-11-11T08:52:35.453Z,12.60
2018-11-11T08:55:03.491Z,12.70
2018-11-11T08:57:31.366Z,12.80
2018-11-11T08:59:59.257Z,12.90
2018-11-11T09:02:26.988Z,13.00
2018-11-11T09:04:54.806Z,13.00
2018-11-11T09:07:22.582Z,13.10
2018-11-11T09:09:50.288Z,13.10
2018-11-11T09:12:18.063Z,13.20
2018-11-11T09:14:46.113Z,13.30
2018-11-11T09:17:14.112Z,13.30
2018-11-11T09:19:42.188Z,13.40
2018-11-11T09:22:10.234Z,13.40
2018-11-11T09:24:38.009Z,13.40
2018-11-11T09:27:05.797Z,13.50
2018-11-11T09:29:33.746Z,13.50
2018-11-11T09:32:01.410Z,13.60
2018-11-11T09:34:29.123Z,13.60
2018-11-11T09:36:56.825Z,13.80
2018-11-11T09:39:24.638Z,13.80
2018-11-11T09:41:52.382Z,13.90
2018-11-11T09:44:21.550Z,13.90
2018-11-11T09:46:49.310Z,13.90
2018-11-11T09:49:17.305Z,14.00
2018-11-11T09:51:45.229Z,14.00
2018-11-11T09:54:13.049Z,14.00
2018-11-11T09:56:42.249Z,14.10
2018-11-11T09:59:09.982Z,14.20
2018-11-11T10:01:41.541Z,14.30
2018-11-11T10:04:15.026Z,14.30
2018-11-11T10:07:17.255Z,14.30
2018-11-11T10:09:55.573Z,14.20
2018-11-11T10:12:33.580Z,14.20
2018-11-11T10:15:11.872Z,14.10
2018-11-11T10:17:52.802Z,14.00
2018-11-11T10:22:31.725Z,13.90
2018-11-11T10:25:08.315Z,13.90
2018-11-11T10:27:40.602Z,13.80
2018-11-11T10:30:29.765Z,13.90
2018-11-11T10:35:18.287Z,13.90
2018-11-11T10:37:54.490Z,14.00
2018-11-11T10:40:37.829Z,14.10
2018-11-11T10:43:11.289Z,14.20
2018-11-11T10:45:46.482Z,14.40
2018-11-11T10:48:17.953Z,14.50
2018-11-11T10:50:52.649Z,14.60
2018-11-11T10:53:20.650Z,14.80
2018-11-11T10:55:48.785Z,14.80
2018-11-11T10:58:16.594Z,14.90
2018-11-11T11:00:49.741Z,14.80
2018-11-11T11:03:23.052Z,14.80
2018-11-11T11:05:50.782Z,14.80
2018-11-11T11:08:18.850Z,14.80
2018-11-11T11:10:46.827Z,14.80
2018-11-11T11:13:14.709Z,14.90
2018-11-11T11:15:42.537Z,15.10
2018-11-11T11:18:10.258Z,15.10
2018-11-11T11:20:38.385Z,15.10
2018-11-11T11:23:06.463Z,15.00
2018-11-11T11:25:35.563Z,15.20
2018-11-11T11:28:03.537Z,15.50
2018-11-11T11:30:31.721Z,15.60
2018-11-11T11:32:59.514Z,15.60
2018-11-11T11:35:27.649Z,15.50
2018-11-11T11:37:55.847Z,15.50
2018-11-11T11:40:24.155Z,15.40
2018-11-11T11:42:52.270Z,15.40
2018-11-11T11:45:20.531Z,15.40
2018-11-11T11:47:48.513Z,15.50
2018-11-11T11:50:16.985Z,15.60
2018-11-11T11:52:45.080Z,15.60
2018-11-11T11:55:17.451Z,15.70
2018-11-11T11:57:59.498Z,15.50
2018-11-11T12:00:31.285Z,15.60
2018-11-11T12:03:01.452Z,15.60
2018-11-11T12:05:36.357Z,15.60
2018-11-11T12:08:05.002Z,15.70
2018-11-11T12:10:33.158Z,15.70
2018-11-11T12:13:01.920Z,15.70
2018-11-11T12:15:30.884Z,15.70
2018-11-11T12:18:00.723Z,15.80
2018-11-11T12:25:46.820Z,15.90
2018-11-11T12:28:22.647Z,15.90
2018-11-11T12:30:50.747Z,15.90
2018-11-11T12:33:18.791Z,15.90
2018-11-11T12:35:46.701Z,15.80
2018-11-11T12:38:14.734Z,15.90
2018-11-11T12:40:43.713Z,15.90
2018-11-11T12:43:11.768Z,15.80
2018-11-11T12:45:39.913Z,15.80
2018-11-11T12:48:08.071Z,15.80
2018-11-11T12:50:41.020Z,15.90
2018-11-11T12:53:11.137Z,16.00
2018-11-11T12:55:39.979Z,16.00
2018-11-11T12:58:10.928Z,16.00
2018-11-11T13:00:38.601Z,16.00
2018-11-11T13:03:06.613Z,16.00
2018-11-11T13:05:36.905Z,16.00
2018-11-11T13:08:05.375Z,16.00
2018-11-11T13:10:36.063Z,16.10
2018-11-11T13:13:08.859Z,16.00
2018-11-11T13:15:37.002Z,16.10
2018-11-11T13:18:05.769Z,16.10
2018-11-11T13:20:35.050Z,16.20
2018-11-11T13:23:04.015Z,16.20
2018-11-11T13:25:31.995Z,16.40
2018-11-11T13:27:59.914Z,16.30
2018-11-11T13:30:28.116Z,16.30
2018-11-11T13:32:58.625Z,16.30
2018-11-11T13:35:28.614Z,16.30
2018-11-11T13:37:59.229Z,16.40
2018-11-11T13:40:27.794Z,16.50
2018-11-11T13:43:00.450Z,16.50
2018-11-11T13:45:31.521Z,16.40
2018-11-11T13:48:04.088Z,16.40
2018-11-11T13:50:31.882Z,16.40
2018-11-11T13:52:59.665Z,16.40
2018-11-11T13:55:27.722Z,16.50
2018-11-11T13:58:01.399Z,16.50
2018-11-11T14:00:31.482Z,16.40
2018-11-11T14:03:00.135Z,16.30
2018-11-11T14:05:28.982Z,16.30
2018-11-11T14:07:56.798Z,16.30
2018-11-11T14:10:33.794Z,16.30
2018-11-11T14:13:05.837Z,16.10
2018-11-11T14:15:34.598Z,16.10
2018-11-11T14:18:03.491Z,16.10
2018-11-11T14:20:31.865Z,16.00
2018-11-11T14:22:59.768Z,16.20
2018-11-11T14:25:29.632Z,16.20
2018-11-11T14:27:59.455Z,16.20
2018-11-11T14:30:28.131Z,16.20
2018-11-11T14:32:57.143Z,16.10
2018-11-11T14:35:25.134Z,16.10
2018-11-11T14:37:57.035Z,16.00
2018-11-11T14:40:28.314Z,16.00
2018-11-11T14:42:56.911Z,16.00
2018-11-11T14:45:25.102Z,16.00
2018-11-11T14:47:55.001Z,16.00
2018-11-11T14:50:23.639Z,15.90
2018-11-11T14:52:52.447Z,15.80
2018-11-11T14:55:22.950Z,15.80
2018-11-11T14:57:51.322Z,15.70
2018-11-11T15:00:25.367Z,15.60
2018-11-11T15:03:08.208Z,15.50
2018-11-11T15:05:39.642Z,15.50
2018-11-11T15:08:09.947Z,15.60
2018-11-11T15:10:38.749Z,15.60
2018-11-11T15:13:12.856Z,15.50
2018-11-11T15:15:42.268Z,15.50
2018-11-11T15:18:11.929Z,15.40
2018-11-11T15:20:40.248Z,15.40
2018-11-11T15:23:09.435Z,15.40
2018-11-11T15:25:37.775Z,15.20
2018-11-11T15:28:09.869Z,15.20
2018-11-11T15:30:38.950Z,15.10
2018-11-11T15:33:09.440Z,15.20
2018-11-11T15:35:37.848Z,15.20
2018-11-11T15:38:05.805Z,15.20
2018-11-11T15:40:35.677Z,15.20
2018-11-11T15:43:04.008Z,15.20
2018-11-11T15:45:34.778Z,15.20
2018-11-11T15:48:03.741Z,15.10
2018-11-11T15:50:33.202Z,15.10
2018-11-11T15:53:05.368Z,15.20
2018-11-11T15:55:35.476Z,15.10
2018-11-11T15:58:16.308Z,15.10
2018-11-11T16:00:44.736Z,15.00
2018-11-11T16:03:12.776Z,14.90
2018-11-11T16:05:42.460Z,14.90
2018-11-11T16:08:10.618Z,14.90
2018-11-11T16:10:38.936Z,14.80
2018-11-11T16:13:08.997Z,14.70
2018-11-11T16:15:38.619Z,14.60
2018-11-11T16:18:21.597Z,14.50
2018-11-11T16:20:56.547Z,14.40
2018-11-11T16:23:25.737Z,14.30
2018-11-11T16:25:54.977Z,14.20
2018-11-11T16:28:26.162Z,14.10
2018-11-11T16:30:54.337Z,14.10
2018-11-11T16:33:22.690Z,14.10
2018-11-11T16:35:50.725Z,14.20
2018-11-11T16:38:18.802Z,14.20
2018-11-11T16:40:53.459Z,14.20
2018-11-11T16:43:49.537Z,14.20
2018-11-11T16:49:19.534Z,14.30
2018-11-11T17:03:12.975Z,14.20
2018-11-11T17:05:58.328Z,14.20
2018-11-11T17:08:51.839Z,14.20
2018-11-11T17:17:53.701Z,14.20
2018-11-11T17:20:36.750Z,14.00
2018-11-11T17:28:58.109Z,13.80
2018-11-11T17:31:41.351Z,13.80
2018-11-11T17:37:15.431Z,13.80
2018-11-11T17:40:00.224Z,13.80
2018-11-11T17:42:34.713Z,14.00
2018-11-11T17:51:48.702Z,13.90
2018-11-11T17:54:35.672Z,14.00
2018-11-11T18:00:07.888Z,14.00
2018-11-11T18:19:00.579Z,13.80
2018-11-11T18:21:48.719Z,13.80
2018-11-11T18:27:33.172Z,13.90
2018-11-11T18:30:09.331Z,13.90
2018-11-11T18:47:55.095Z,13.70
2018-11-11T18:50:29.543Z,13.80
2018-11-11T18:53:00.204Z,13.80
2018-11-11T18:58:07.067Z,13.80
2018-11-11T19:00:49.993Z,13.80
2018-11-11T19:03:28.209Z,13.80
2018-11-11T19:06:11.376Z,13.80
2018-11-11T19:08:40.906Z,13.80
2018-11-11T19:11:24.073Z,13.80
2018-11-11T20:03:55.223Z,13.20
2018-11-11T20:06:36.040Z,13.20
2018-11-11T21:00:49.941Z,12.90
2018-11-11T21:06:19.510Z,13.00
2018-11-11T21:17:38.881Z,13.00
2018-11-11T21:31:39.053Z,13.00
2018-11-11T21:34:08.231Z,13.00
2018-11-11T21:36:42.090Z,12.90
2018-11-11T21:39:30.940Z,12.70
2018-11-11T21:42:04.754Z,12.70
2018-11-11T21:44:40.509Z,12.60
2018-11-11T21:47:14.881Z,12.60
2018-11-11T21:49:44.646Z,12.70
2018-11-11T21:52:15.341Z,12.70
2018-11-11T21:54:46.215Z,12.70
2018-11-11T21:57:17.997Z,12.80
2018-11-11T21:59:54.708Z,12.90
2018-11-11T22:02:26.355Z,12.80
2018-11-11T22:04:57.654Z,12.70
2018-11-11T22:07:34.677Z,12.60
2018-11-11T22:10:15.791Z,12.60
2018-11-11T22:12:55.185Z,12.40
2018-11-11T22:18:02.166Z,12.30
2018-11-11T22:20:41.683Z,12.40
2018-11-11T22:23:17.730Z,12.40
2018-11-11T22:25:51.803Z,12.40
2018-11-11T22:28:25.097Z,12.40
2018-11-11T22:30:57.607Z,12.20
2018-11-11T22:36:14.983Z,12.10
2018-11-11T22:48:17.675Z,12.20
2018-11-11T22:50:54.311Z,12.20
2018-11-11T22:56:31.058Z,11.80
2018-11-11T23:04:56.430Z,11.60
2018-11-11T23:07:28.383Z,11.60
2018-11-11T23:09:58.719Z,11.70
2018-11-11T23:12:29.155Z,11.70
2018-11-11T23:17:35.474Z,11.80
2018-11-11T23:20:16.925Z,11.80
2018-11-11T23:22:47.963Z,11.70
2018-11-11T23:25:22.884Z,11.80
2018-11-11T23:27:52.515Z,11.80
2018-11-11T23:33:31.020Z,11.60
2018-11-11T23:36:01.493Z,11.50
2018-11-11T23:41:16.336Z,11.60
2018-11-11T23:43:46.742Z,11.60
2018-11-11T23:46:21.266Z,11.50
2018-11-11T23:48:50.790Z,11.50
2018-11-11T23:51:24.405Z,11.40
2018-11-11T23:53:54.321Z,11.50
2018-11-11T23:56:23.090Z,11.50
2018-11-11T23:58:52.767Z,11.50
